Terminal Aerodrome Forecast
Issued by NWS Cleveland, OH

Home | Current Version | Previous Version | Graphics & Text | Print | Product List | Glossary On
Versions: 1 2 3 4 5 6 7 8 9 10 11 12 13 14 15 16 17 18 19 20 21 22 23 24
000
FTUS41 KCLE 051700
TAFMFD
TAF
KMFD 051729Z 0518/0618 35008KT P6SM SCT025 BKN150
      TEMPO 0518/0521 BKN025
     FM060100 VRB03KT P6SM SKC
     FM061600 20010KT P6SM BKN250=

USA.gov is the U.S. government's official web portal to all federal, state and local government web resources and services.